Time;durP1;ratioP1;P1;durP2;ratioP2;P2;SDS_P1;SDS_P2;PMS_P1;PMS_P2;Temp;Humidity;BMP_temperature;BMP_pressure;BME280_temperature;BME280_humidity;BME280_pressure;Samples;Min_cycle;Max_cycle;Signal;HPM_P1;HPM_P2
2021/06/15 00:00:02;;;;;;;;;;;;;;;;;;;;;
2021/06/15 00:03:19;;;;;;;;;;;;;;;;;;;;;
2021/06/15 00:17:09;;;;;;;;;;;;;;;;;;;;;
2021/06/15 00:20:27;;;;;;;;;;;;;;;;;;;;;
2021/06/15 00:29:46;;;;;;;;;;;;;;;;;;;;;
2021/06/15 00:33:15;;;;;;;6.20;3.30;;;;;;;15.73;53.22;100741.97;5117256;27;20074;-82
2021/06/15 01:26:18;;;;;;;;;;;;;;;;;;;;;
2021/06/15 01:34:07;;;;;;;;;;;;;;;;;;;;;
2021/06/15 01:37:30;;;;;;;;;;;;;;;;;;;;;
2021/06/15 01:41:23;;;;;;;;;;;;;;;;;;;;;
2021/06/15 02:34:29;;;;;;;;;;;;;;;;;;;;;
2021/06/15 02:37:52;;;;;;;;;;;;;;;;;;;;;
2021/06/15 02:40:48;;;;;;;;;;;;;;;;;;;;;
2021/06/15 02:43:55;;;;;;;;;;;;;;;;;;;;;
2021/06/15 02:46:48;;;;;;;11.05;4.18;;;;;;;15.26;53.60;100705.88;4510631;31;20152;-84
2021/06/15 02:49:28;;;;;;;7.97;3.58;;;;;;;14.85;55.84;100705.75;4498909;31;20397;-83
2021/06/15 02:52:44;;;;;;;8.13;4.70;;;;;;;15.21;54.07;100705.97;4493127;31;20104;-84
2021/06/15 02:56:10;;;;;;;;;;;;;;;;;;;;;
2021/06/15 02:58:53;;;;;;;8.18;3.85;;;;;;;14.99;55.66;100714.31;4493003;31;20104;-84
2021/06/15 03:01:49;;;;;;;8.18;4.20;;;;;;;14.68;56.88;100724.59;4468643;32;20147;-83
2021/06/15 03:04:46;;;;;;;7.15;3.67;;;;;;;14.67;56.45;100719.31;4484818;32;20544;-83
2021/06/15 03:07:39;;;;;;;9.73;4.28;;;;;;;14.80;55.42;100723.50;4492764;32;20151;-84
2021/06/15 03:10:17;;;;;;;10.40;3.87;;;;;;;14.59;55.59;100726.50;4493942;32;20122;-83
2021/06/15 03:13:17;;;;;;;5.18;3.58;;;;;;;14.60;54.64;100725.63;4493894;31;20111;-83
2021/06/15 03:15:54;;;;;;;5.78;3.33;;;;;;;14.52;55.76;100720.47;4493802;31;20153;-84
2021/06/15 03:18:56;;;;;;;7.32;3.62;;;;;;;14.41;55.73;100731.19;4494066;31;20096;-83
2021/06/15 03:21:52;;;;;;;10.90;5.35;;;;;;;14.39;57.75;100735.63;4492580;32;20151;-83
2021/06/15 03:24:23;;;;;;;8.50;5.03;;;;;;;13.97;59.83;100738.03;4493764;31;20144;-84
2021/06/15 03:27:11;;;;;;;;;;;;;;;;;;;;;
2021/06/15 03:29:47;;;;;;;9.38;4.50;;;;;;;15.36;54.98;100734.78;4495400;31;19995;-83
2021/06/15 03:32:18;;;;;;;;;;;;;;;15.06;57.62;100743.28;4494243;31;20120;-83
2021/06/15 03:34:52;;;;;;;14.05;5.05;;;;;;;15.40;55.71;100741.75;4493717;32;19986;-81
2021/06/15 03:37:31;;;;;;;9.25;4.03;;;;;;;15.87;54.66;100744.34;4493542;32;20104;-84
2021/06/15 03:40:32;;;;;;;16.75;6.25;;;;;;;16.73;51.41;100737.84;4493421;31;20122;-82
2021/06/15 03:43:14;;;;;;;6.12;3.12;;;;;;;17.36;49.95;100735.31;4493962;32;20461;-83
2021/06/15 03:49:51;;;;;;;7.35;4.12;;;;;;;18.76;46.43;100731.87;4506749;31;20156;-83
2021/06/15 03:53:19;;;;;;;7.45;3.50;;;;;;;19.33;44.46;100732.53;4500466;31;20654;-83
2021/06/15 03:56:13;;;;;;;8.57;3.90;;;;;;;19.86;43.38;100725.19;4446743;32;20109;-84
2021/06/15 03:59:34;;;;;;;8.43;3.33;;;;;;;20.62;41.65;100718.59;4423949;32;20139;-84
2021/06/15 04:02:27;;;;;;;9.32;3.90;;;;;;;21.20;39.85;100723.16;4412002;32;20164;-82
2021/06/15 04:04:55;;;;;;;10.32;4.30;;;;;;;21.62;39.61;100718.63;4437695;32;20128;-82
2021/06/15 04:07:24;;;;;;;9.48;4.05;;;;;;;21.64;40.29;100719.44;4437982;32;20221;-82
2021/06/15 04:09:52;;;;;;;9.40;3.35;;;;;;;22.22;38.80;100725.59;4437577;32;20635;-83
2021/06/15 04:12:24;;;;;;;6.10;3.40;;;;;;;22.36;38.79;100724.91;4470010;31;20064;-83
2021/06/15 04:14:52;;;;;;;5.05;3.30;;;;;;;23.10;37.16;100730.06;4503062;31;20538;-82
2021/06/15 04:17:24;;;;;;;7.70;4.18;;;;;;;23.60;36.15;100722.94;4502909;31;20096;-82
2021/06/15 04:19:57;;;;;;;12.10;5.28;;;;;;;24.16;34.74;100718.94;4502940;31;20072;-82
2021/06/15 04:22:49;;;;;;;8.10;4.68;;;;;;;24.54;33.98;100723.06;4503580;31;20091;-82
2021/06/15 04:25:23;;;;;;;12.45;4.40;;;;;;;25.05;32.96;100715.50;4503350;31;20096;-83
2021/06/15 04:27:50;;;;;;;63.30;8.10;;;;;;;25.13;33.58;100721.28;4503990;31;20504;-82
2021/06/15 04:30:20;;;;;;;40.55;5.95;;;;;;;25.36;33.21;100715.37;4506022;31;20809;-83
2021/06/15 04:33:00;;;;;;;22.42;4.68;;;;;;;25.60;33.87;100725.56;4504685;31;20120;-83
2021/06/15 04:35:35;;;;;;;19.67;6.10;;;;;;;26.21;32.56;100721.63;4503248;31;20202;-83
2021/06/15 04:38:10;;;;;;;15.15;4.68;;;;;;;26.04;33.03;100720.03;4503588;31;20509;-83
2021/06/15 04:40:41;;;;;;;9.25;4.22;;;;;;;25.63;33.80;100724.50;4499972;31;20616;-83
2021/06/15 04:43:28;;;;;;;6.12;3.80;;;;;;;22.17;41.32;100729.41;4500021;31;20138;-83
2021/06/15 04:46:13;;;;;;;15.15;5.60;;;;;;;22.51;40.82;100728.63;4501875;31;20100;-83
2021/06/15 04:48:43;;;;;;;11.80;6.00;;;;;;;23.56;39.08;100734.81;4501259;31;20144;-83
2021/06/15 04:51:10;;;;;;;;;;;;;;;25.26;35.64;100726.78;4502018;31;20383;-83
2021/06/15 04:53:43;;;;;;;8.05;3.33;;;;;;;26.07;34.61;100724.34;4501406;31;20016;-83
2021/06/15 04:56:13;;;;;;;9.52;4.35;;;;;;;26.71;33.23;100728.19;4501592;31;20505;-83
2021/06/15 04:58:42;;;;;;;11.25;4.12;;;;;;;27.18;32.49;100725.91;4501235;31;20616;-83
2021/06/15 05:01:11;;;;;;;15.27;4.60;;;;;;;27.63;31.72;100729.00;4501123;31;20138;-83
2021/06/15 05:03:39;;;;;;;10.95;5.68;;;;;;;28.21;32.01;100729.31;4499000;31;20136;-82
2021/06/15 05:06:07;;;;;;;17.35;4.82;;;;;;;28.22;31.78;100734.56;4497965;31;20111;-82
2021/06/15 05:08:40;;;;;;;15.13;5.37;;;;;;;27.68;33.05;100744.84;4498348;31;20155;-83
2021/06/15 05:11:08;;;;;;;16.92;5.07;;;;;;;28.03;32.10;100745.00;4498403;31;20191;-82
2021/06/15 05:13:36;;;;;;;13.25;4.82;;;;;;;28.63;31.15;100741.44;4498209;31;20175;-82
2021/06/15 05:16:05;;;;;;;9.25;4.87;;;;;;;29.17;30.23;100742.72;4498154;31;20492;-83
2021/06/15 05:18:34;;;;;;;18.65;5.85;;;;;;;29.49;30.30;100733.91;4498210;31;20084;-82
2021/06/15 05:21:10;;;;;;;16.00;5.45;;;;;;;29.10;29.84;100736.09;4497270;31;20487;-81
2021/06/15 05:23:43;;;;;;;16.37;5.03;;;;;;;28.75;30.44;100726.13;4487365;31;20139;-81
2021/06/15 05:26:12;;;;;;;12.32;4.00;;;;;;;28.87;31.64;100736.00;4489291;31;20096;-81
2021/06/15 05:28:41;;;;;;;11.30;3.57;;;;;;;29.00;31.29;100744.00;4489568;31;20112;-81
2021/06/15 05:31:08;;;;;;;;;;;;;;;28.97;30.29;100742.44;4483928;31;20108;-81
2021/06/15 05:33:35;;;;;;;5.03;3.58;;;;;;;29.06;27.32;100738.19;4482119;32;19988;-81
2021/06/15 05:36:03;;;;;;;11.15;3.85;;;;;;;29.22;27.06;100736.97;4494236;31;20147;-81
2021/06/15 05:38:30;;;;;;;18.15;4.97;;;;;;;29.31;27.80;100738.94;4482709;32;20131;-81
2021/06/15 05:40:59;;;;;;;20.30;4.80;;;;;;;29.48;26.40;100727.63;4483438;31;20183;-82
2021/06/15 05:43:26;;;;;;;46.67;7.32;;;;;;;29.65;26.75;100739.88;4483350;31;20096;-82
2021/06/15 05:45:53;;;;;;;11.50;4.18;;;;;;;29.42;27.51;100750.62;4483612;31;20127;-82
2021/06/15 05:48:21;;;;;;;8.43;4.68;;;;;;;29.88;25.66;100744.28;4482725;31;20119;-81
2021/06/15 05:50:49;;;;;;;11.68;3.53;;;;;;;29.68;25.69;100739.63;4483071;31;20431;-81
2021/06/15 05:53:16;;;;;;;9.77;4.68;;;;;;;30.27;25.74;100742.00;4488328;31;20115;-82
2021/06/15 05:55:44;;;;;;;8.93;3.83;;;;;;;30.49;25.26;100740.19;4498357;31;20134;-82
2021/06/15 05:58:11;;;;;;;8.32;3.78;;;;;;;30.39;24.19;100734.69;4491027;31;20100;-82
2021/06/15 06:00:55;;;;;;;;;;;;;;;;;;;;;
2021/06/15 06:03:46;;;;;;;17.12;4.43;;;;;;;30.77;26.32;100736.03;4492713;31;20323;-83
2021/06/15 06:09:14;;;;;;;11.07;4.12;;;;;;;31.43;24.91;100747.47;4487367;31;20088;-83
2021/06/15 06:11:42;;;;;;;15.85;4.72;;;;;;;31.88;25.25;100741.66;4493342;31;20113;-82
2021/06/15 06:14:23;;;;;;;18.42;4.60;;;;;;;32.07;24.26;100750.91;4484584;31;20153;-82
2021/06/15 06:17:01;;;;;;;9.35;3.70;;;;;;;32.17;24.35;100749.06;4488923;31;20108;-82
2021/06/15 06:19:31;;;;;;;21.08;5.75;;;;;;;31.83;22.83;100746.66;4485607;31;20095;-82
2021/06/15 06:21:59;;;;;;;157.40;17.95;;;;;;;32.01;23.31;100752.31;4482412;31;20099;-82
2021/06/15 06:24:27;;;;;;;19.67;5.03;;;;;;;32.20;22.72;100754.22;4481670;31;20134;-82
2021/06/15 06:26:54;;;;;;;11.85;3.80;;;;;;;31.79;23.24;100742.47;4485014;31;20128;-81
2021/06/15 06:29:29;;;;;;;13.85;3.95;;;;;;;31.51;22.92;100748.69;4489044;31;20092;-81
2021/06/15 06:32:12;;;;;;;10.77;3.70;;;;;;;31.62;24.18;100744.00;4480459;31;20092;-81
2021/06/15 06:34:48;;;;;;;36.65;6.18;;;;;;;31.76;24.80;100742.75;4482299;31;20109;-82
2021/06/15 06:37:15;;;;;;;11.52;3.97;;;;;;;31.89;24.18;100745.25;4484442;31;20113;-82
2021/06/15 06:39:42;;;;;;;11.02;4.07;;;;;;;31.79;23.88;100744.34;4481995;31;20145;-82
2021/06/15 06:42:10;;;;;;;9.63;3.47;;;;;;;31.98;23.67;100741.72;4484908;31;20351;-82
2021/06/15 06:44:53;;;;;;;;;;;;;;;;;;;;;
2021/06/15 06:47:24;;;;;;;6.47;3.47;;;;;;;31.94;23.24;100743.00;4482331;31;20126;-81
2021/06/15 06:49:52;;;;;;;10.20;4.15;;;;;;;31.75;23.04;100738.34;4480052;31;20121;-82
2021/06/15 06:52:21;;;;;;;6.68;3.55;;;;;;;31.81;24.66;100737.78;4485542;31;20108;-82
2021/06/15 06:55:19;;;;;;;9.40;4.23;;;;;;;31.88;23.17;100728.06;4476523;31;20115;-83
2021/06/15 06:58:01;;;;;;;8.43;3.50;;;;;;;31.92;24.81;100733.28;4482000;31;20572;-82
2021/06/15 07:00:55;;;;;;;68.18;8.02;;;;;;;32.30;22.80;100724.34;4494983;31;20143;-83
2021/06/15 07:03:38;;;;;;;18.10;4.85;;;;;;;31.88;22.78;100730.78;4489634;31;20081;-83
2021/06/15 07:06:31;;;;;;;12.73;4.60;;;;;;;31.39;23.99;100732.47;4429799;32;20144;-83
2021/06/15 07:09:04;;;;;;;18.52;4.78;;;;;;;31.81;22.17;100732.34;4441459;32;22002;-83
2021/06/15 07:11:46;;;;;;;87.40;10.27;;;;;;;32.03;21.97;100734.03;4437433;32;20635;-83
2021/06/15 07:14:32;;;;;;;74.28;12.07;;;;;;;32.11;22.16;100727.88;4433379;32;20081;-82
2021/06/15 07:17:05;;;;;;;27.30;6.53;;;;;;;32.73;20.97;100728.50;4423417;32;20109;-83
2021/06/15 07:19:40;;;;;;;6.43;3.62;;;;;;;32.36;24.53;100731.94;4427575;32;20163;-83
2021/06/15 07:22:25;;;;;;;8.90;4.10;;;;;;;32.62;22.96;100715.94;4436572;32;20125;-83
2021/06/15 07:24:53;;;;;;;8.55;3.90;;;;;;;33.08;22.56;100719.75;4436661;32;20112;-82
2021/06/15 07:27:20;;;;;;;18.52;3.97;;;;;;;33.41;22.20;100715.63;4432408;32;20125;-81
2021/06/15 07:29:49;;;;;;;;;;;;;;;33.71;21.34;100708.25;4432300;31;20121;-83
2021/06/15 07:32:20;;;;;;;8.20;3.45;;;;;;;32.22;21.71;100725.03;4489550;31;19985;-83
2021/06/15 07:35:01;;;;;;;;;;;;;;;;;;;;;
2021/06/15 07:37:44;;;;;;;7.43;3.47;;;;;;;32.76;22.66;100715.47;4498245;31;20103;-83
2021/06/15 07:40:22;;;;;;;;;;;;;;;;;;;;;
2021/06/15 07:43:11;;;;;;;5.60;3.37;;;;;;;33.10;21.05;100719.63;4491505;31;21346;-83
2021/06/15 07:45:46;;;;;;;8.43;3.80;;;;;;;33.14;21.82;100718.31;4482484;31;20096;-83
2021/06/15 07:48:41;;;;;;;8.43;3.42;;;;;;;32.95;24.11;100720.03;4490333;31;20479;-82
2021/06/15 07:51:36;;;;;;;6.00;3.30;;;;;;;33.14;21.59;100715.59;4483982;31;20119;-82
2021/06/15 07:54:08;;;;;;;26.02;4.35;;;;;;;33.55;21.12;100711.59;4491886;31;20116;-82
2021/06/15 07:56:41;;;;;;;10.23;3.87;;;;;;;33.57;20.55;100719.63;4486687;31;20081;-82
2021/06/15 07:59:27;;;;;;;;;;;;;;;;;;;;;
2021/06/15 08:02:22;;;;;;;;;;;;;;;32.66;21.55;100720.06;4490142;31;20164;-83
2021/06/15 08:05:34;;;;;;;;;;;;;;;;;;;;;
2021/06/15 08:08:12;;;;;;;14.13;4.28;;;;;;;33.77;21.57;100714.91;4485860;31;20112;-83
2021/06/15 08:10:50;;;;;;;5.40;3.40;;;;;;;32.90;20.16;100716.88;4487217;31;20104;-83
2021/06/15 08:13:46;;;;;;;14.93;4.35;;;;;;;32.94;21.65;100715.59;4483671;31;20115;-83
2021/06/15 08:16:25;;;;;;;11.68;3.95;;;;;;;33.22;23.50;100711.13;4485434;31;20389;-83
2021/06/15 08:19:01;;;;;;;6.68;3.12;;;;;;;33.87;23.18;100710.28;4491156;31;20084;-83
2021/06/15 08:21:32;;;;;;;9.95;3.70;;;;;;;34.40;22.04;100706.78;4487720;31;20502;-82
2021/06/15 08:24:00;;;;;;;13.73;4.32;;;;;;;34.56;21.08;100701.53;4487331;31;20157;-82
2021/06/15 08:26:30;;;;;;;7.53;3.20;;;;;;;34.31;20.72;100700.41;4496784;31;20088;-82
2021/06/15 08:28:58;;;;;;;6.30;3.20;;;;;;;34.82;22.18;100701.53;4485718;31;20092;-83
2021/06/15 08:31:27;;;;;;;25.95;5.15;;;;;;;33.31;21.54;100706.66;4486039;31;20119;-83
2021/06/15 08:33:55;;;;;;;10.10;4.20;;;;;;;34.23;21.33;100703.03;4488852;31;20132;-82
2021/06/15 08:36:23;;;;;;;64.25;7.12;;;;;;;33.59;20.46;100695.81;4491025;31;20136;-82
2021/06/15 08:38:50;;;;;;;23.55;5.50;;;;;;;33.19;20.64;100705.13;4487998;31;20088;-81
2021/06/15 08:41:23;;;;;;;12.55;3.90;;;;;;;33.68;21.80;100694.91;4482402;31;20101;-82
2021/06/15 08:43:50;;;;;;;7.53;3.17;;;;;;;34.17;19.41;100700.09;4484886;31;20127;-82
2021/06/15 08:46:19;;;;;;;7.40;3.20;;;;;;;34.43;20.66;100692.84;4489957;31;20365;-82
2021/06/15 08:48:48;;;;;;;8.15;4.10;;;;;;;34.49;18.96;100694.94;4487967;31;20165;-82
2021/06/15 08:51:16;;;;;;;9.20;3.90;;;;;;;32.48;20.27;100700.91;4485422;31;20103;-81
2021/06/15 08:54:04;;;;;;;4.68;3.30;;;;;;;32.46;20.67;100691.16;4490671;31;20096;-81
2021/06/15 08:56:43;;;;;;;5.20;3.85;;;;;;;31.78;22.73;100696.44;4482135;31;20152;-82
2021/06/15 08:59:18;;;;;;;20.00;4.45;;;;;;;32.45;22.06;100694.91;4490348;31;20123;-82
2021/06/15 09:02:01;;;;;;;7.22;3.87;;;;;;;33.11;20.74;100689.50;4489829;31;20112;-82
2021/06/15 09:04:30;;;;;;;6.65;3.75;;;;;;;34.05;20.67;100686.66;4487835;31;20111;-82
2021/06/15 09:07:04;;;;;;;6.95;3.58;;;;;;;34.22;20.76;100690.44;4497641;31;20107;-82
2021/06/15 09:09:43;;;;;;;7.15;3.35;;;;;;;34.08;18.81;100688.22;4493280;31;20108;-82
2021/06/15 09:12:11;;;;;;;;;;;;;;;34.82;18.12;100687.87;4487445;31;20450;-82
2021/06/15 09:14:46;;;;;;;7.35;3.58;;;;;;;34.53;18.52;100679.97;4492468;31;20404;-82
2021/06/15 09:17:32;;;;;;;8.63;3.42;;;;;;;34.43;20.22;100684.66;4496853;31;20129;-82
2021/06/15 09:20:42;;;;;;;6.37;3.15;;;;;;;34.30;19.54;100679.59;4482300;31;20115;-81
2021/06/15 09:23:15;;;;;;;6.00;3.70;;;;;;;34.09;19.02;100679.91;4406272;32;20101;-81
2021/06/15 09:25:51;;;;;;;4.40;3.15;;;;;;;32.21;20.38;100677.13;4477078;31;20105;-81
2021/06/15 09:28:22;;;;;;;6.60;3.80;;;;;;;32.73;20.09;100687.69;4481618;32;20114;-82
2021/06/15 09:31:05;;;;;;;7.15;3.78;;;;;;;33.32;18.78;100678.41;4490158;31;20093;-82
2021/06/15 09:33:43;;;;;;;6.72;3.28;;;;;;;34.25;20.86;100679.22;4484713;31;20504;-82
2021/06/15 09:36:13;;;;;;;6.87;3.30;;;;;;;34.84;20.17;100671.37;4493172;31;20112;-82
2021/06/15 09:38:59;;;;;;;6.12;2.97;;;;;;;35.43;17.36;100672.41;4485652;31;20107;-82
2021/06/15 09:41:40;;;;;;;6.20;3.45;;;;;;;34.95;16.97;100673.84;4481825;31;20096;-82
2021/06/15 09:44:21;;;;;;;6.65;3.78;;;;;;;32.88;19.10;100671.78;4490703;31;20112;-82
2021/06/15 09:46:51;;;;;;;4.28;3.15;;;;;;;33.46;19.79;100679.78;4485103;31;20143;-81
2021/06/15 09:49:29;;;;;;;6.62;3.60;;;;;;;33.87;18.71;100672.13;4481127;32;20108;-81
2021/06/15 09:52:26;;;;;;;6.32;3.65;;;;;;;34.04;18.33;100675.94;4481842;32;20111;-82
2021/06/15 09:55:03;;;;;;;9.00;4.00;;;;;;;34.81;18.12;100674.41;4481781;32;20095;-82
2021/06/15 09:57:34;;;;;;;6.37;3.25;;;;;;;35.20;18.79;100679.47;4488153;31;20572;-82
2021/06/15 10:00:12;;;;;;;6.90;3.10;;;;;;;34.78;16.03;100672.00;4484968;31;20123;-82
2021/06/15 10:02:46;;;;;;;5.80;3.58;;;;;;;35.01;16.32;100666.88;4484182;31;20423;-82
2021/06/15 10:05:31;;;;;;;5.57;3.25;;;;;;;34.72;18.87;100659.00;4494768;31;20119;-81
2021/06/15 10:08:07;;;;;;;6.72;3.22;;;;;;;36.06;18.64;100667.53;4494458;31;20120;-82
2021/06/15 10:10:39;;;;;;;16.27;4.15;;;;;;;36.72;17.89;100652.91;4491002;31;20116;-82
2021/06/15 10:13:10;;;;;;;6.05;3.62;;;;;;;36.72;17.07;100655.62;4497775;31;20469;-82
2021/06/15 10:15:41;;;;;;;8.02;3.75;;;;;;;36.82;16.83;100648.06;4496972;31;20146;-82
2021/06/15 10:18:09;;;;;;;7.85;3.67;;;;;;;37.20;17.11;100645.62;4497533;31;20126;-82
2021/06/15 10:20:38;;;;;;;6.37;3.10;;;;;;;37.85;16.72;100649.97;4484418;31;20513;-83
2021/06/15 10:23:06;;;;;;;17.58;5.03;;;;;;;37.39;15.15;100638.88;4496957;31;20424;-82
2021/06/15 10:25:37;;;;;;;8.90;3.62;;;;;;;36.90;18.01;100638.16;4492912;31;20116;-82
2021/06/15 10:28:13;;;;;;;5.25;3.33;;;;;;;37.17;17.86;100640.50;4481760;31;20134;-83
2021/06/15 10:30:42;;;;;;;7.97;3.22;;;;;;;37.35;18.68;100633.94;4495301;31;20098;-82
2021/06/15 10:33:26;;;;;;;5.22;3.50;;;;;;;37.43;16.08;100632.00;4496952;31;20522;-82
2021/06/15 10:35:58;;;;;;;8.20;3.33;;;;;;;37.48;15.84;100628.78;4484597;31;20120;-82
2021/06/15 10:38:25;;;;;;;7.40;3.22;;;;;;;36.93;16.22;100635.06;4496750;31;20165;-82
2021/06/15 10:40:54;;;;;;;7.18;3.08;;;;;;;36.64;15.68;100625.53;4488858;31;20107;-82
2021/06/15 10:43:28;;;;;;;7.32;3.50;;;;;;;34.53;16.90;100633.59;4481617;31;20110;-82
2021/06/15 10:46:03;;;;;;;5.28;3.17;;;;;;;35.91;17.02;100632.63;4482796;31;20457;-82
2021/06/15 10:48:40;;;;;;;38.13;6.95;;;;;;;36.24;15.99;100619.03;4480770;32;20112;-82
2021/06/15 10:51:17;;;;;;;18.50;4.60;;;;;;;34.59;17.42;100627.53;4483531;31;20149;-83
2021/06/15 10:53:44;;;;;;;4.40;2.78;;;;;;;35.72;18.33;100617.38;4481113;31;20096;-83
2021/06/15 10:56:13;;;;;;;8.15;4.62;;;;;;;36.52;17.39;100618.72;4490918;31;20220;-83
2021/06/15 10:58:43;;;;;;;5.65;3.30;;;;;;;37.49;15.27;100614.03;4498917;31;21066;-82
2021/06/15 11:01:25;;;;;;;6.70;2.92;;;;;;;35.52;15.69;100606.87;4499326;31;20154;-82
2021/06/15 11:03:55;;;;;;;5.30;2.95;;;;;;;35.82;17.97;100610.91;4500752;31;20170;-82
2021/06/15 11:06:28;;;;;;;3.87;2.70;;;;;;;35.52;16.09;100610.47;4499436;31;20473;-82
2021/06/15 11:09:04;;;;;;;4.55;3.17;;;;;;;35.86;15.97;100601.38;4484714;31;20123;-82
2021/06/15 11:11:33;;;;;;;14.13;3.10;;;;;;;36.01;17.71;100607.03;4484794;32;20083;-82
2021/06/15 11:14:25;;;;;;;7.07;3.28;;;;;;;36.26;15.56;100594.25;4484763;31;20487;-82
2021/06/15 11:16:57;;;;;;;8.65;3.55;;;;;;;36.68;17.50;100594.06;4499606;31;20112;-81
2021/06/15 11:19:24;;;;;;;7.25;3.20;;;;;;;37.29;18.49;100588.91;4497620;31;20218;-82
2021/06/15 11:22:02;;;;;;;7.85;3.65;;;;;;;37.69;17.15;100587.03;4498539;31;20502;-82
2021/06/15 11:24:36;;;;;;;6.75;3.12;;;;;;;37.72;16.17;100584.75;4498416;31;20076;-81
2021/06/15 11:27:16;;;;;;;14.27;3.60;;;;;;;37.85;16.39;100577.81;4496359;31;20477;-82
2021/06/15 11:29:45;;;;;;;10.18;3.22;;;;;;;37.62;14.75;100583.28;4488166;31;20148;-82
2021/06/15 11:32:20;;;;;;;5.53;3.33;;;;;;;37.81;17.90;100577.34;4487700;31;20088;-82
2021/06/15 11:34:55;;;;;;;5.43;2.62;;;;;;;37.47;14.95;100570.34;4483201;32;20107;-82
2021/06/15 11:37:34;;;;;;;7.87;3.25;;;;;;;36.69;15.50;100578.50;4483334;31;20394;-82
2021/06/15 11:40:11;;;;;;;4.80;3.30;;;;;;;36.42;14.79;100569.63;4482962;31;20155;-82
2021/06/15 11:42:38;;;;;;;4.18;3.00;;;;;;;35.89;16.02;100570.97;4485426;31;20430;-82
2021/06/15 11:45:13;;;;;;;7.85;3.17;;;;;;;36.06;18.64;100571.84;4495885;31;20122;-82
2021/06/15 11:47:46;;;;;;;5.70;2.95;;;;;;;34.77;16.64;100567.44;4488710;31;20092;-82
2021/06/15 11:50:21;;;;;;;4.90;2.95;;;;;;;35.35;16.60;100568.56;4493000;31;20132;-82
2021/06/15 11:52:53;;;;;;;7.62;3.20;;;;;;;35.74;17.03;100558.97;4483015;32;20157;-82
2021/06/15 11:55:26;;;;;;;5.72;3.40;;;;;;;34.54;16.21;100567.13;4495740;31;20172;-82
2021/06/15 11:58:17;;;;;;;6.50;3.28;;;;;;;35.49;17.50;100551.53;4486125;31;20100;-83
2021/06/15 12:00:47;;;;;;;5.20;2.45;;;;;;;35.55;16.12;100560.13;4489371;31;20109;-82
2021/06/15 12:03:20;;;;;;;4.72;2.80;;;;;;;36.16;19.35;100547.91;4494891;31;20096;-82
2021/06/15 12:05:49;;;;;;;5.65;2.90;;;;;;;36.23;14.96;100548.06;4497897;31;20160;-82
2021/06/15 12:08:17;;;;;;;11.90;3.60;;;;;;;34.50;15.85;100556.66;4486956;31;20108;-82
2021/06/15 12:10:46;;;;;;;6.05;2.90;;;;;;;35.50;17.71;100541.47;4490385;31;20146;-82
2021/06/15 12:13:30;;;;;;;7.93;3.67;;;;;;;36.05;16.96;100540.91;4495053;31;20088;-82
2021/06/15 12:16:18;;;;;;;7.97;3.65;;;;;;;36.73;16.03;100536.03;4495790;31;20157;-82
2021/06/15 12:18:49;;;;;;;9.02;3.15;;;;;;;34.88;16.98;100536.28;4488472;31;20116;-82
2021/06/15 12:21:26;;;;;;;5.72;3.37;;;;;;;34.25;17.15;100540.12;4497025;31;20446;-83
2021/06/15 12:23:58;;;;;;;4.93;2.83;;;;;;;34.48;17.25;100534.16;4492105;31;20099;-82
2021/06/15 12:26:34;;;;;;;81.90;10.55;;;;;;;34.65;17.00;100538.72;4486093;31;20127;-82
2021/06/15 12:29:00;;;;;;;5.07;2.97;;;;;;;34.78;18.19;100538.28;4496540;31;20087;-82
2021/06/15 12:31:40;;;;;;;4.32;2.70;;;;;;;35.66;16.32;100527.88;4496363;31;20776;-83
2021/06/15 12:34:13;;;;;;;17.55;3.90;;;;;;;34.66;16.54;100534.97;4484047;31;20446;-82
2021/06/15 12:36:42;;;;;;;5.78;2.42;;;;;;;34.18;16.76;100540.91;4487858;31;20113;-81
2021/06/15 12:39:11;;;;;;;4.68;2.97;;;;;;;32.54;17.68;100531.69;4482576;32;20378;-81
2021/06/15 12:41:43;;;;;;;4.43;2.80;;;;;;;32.72;17.98;100528.22;4497785;31;20104;-81
2021/06/15 12:44:11;;;;;;;5.93;3.35;;;;;;;32.00;18.79;100530.47;4498269;31;20096;-81
2021/06/15 12:46:40;;;;;;;8.07;3.10;;;;;;;32.28;19.00;100526.00;4488596;31;20171;-81
2021/06/15 12:49:17;;;;;;;5.07;3.15;;;;;;;32.45;20.13;100527.16;4488848;31;20101;-81
2021/06/15 12:51:49;;;;;;;6.03;2.78;;;;;;;30.74;20.40;100533.72;4494091;31;20108;-82
2021/06/15 12:54:20;;;;;;;4.18;3.17;;;;;;;30.81;20.09;100533.22;4499452;31;20088;-81
2021/06/15 12:57:05;;;;;;;5.20;2.78;;;;;;;31.15;21.99;100531.91;4495008;31;20084;-81
2021/06/15 12:59:38;;;;;;;3.28;2.40;;;;;;;32.49;21.57;100533.16;4486796;31;20127;-82
2021/06/15 13:02:17;;;;;;;6.60;2.58;;;;;;;33.05;17.36;100524.06;4485355;31;20626;-82
2021/06/15 13:04:51;;;;;;;4.97;2.50;;;;;;;33.63;20.23;100518.28;4491394;31;20091;-82
2021/06/15 13:07:20;;;;;;;5.53;3.40;;;;;;;33.33;17.87;100513.19;4490657;31;20148;-81
2021/06/15 13:09:48;;;;;;;9.10;3.00;;;;;;;34.12;18.70;100510.56;4496056;31;20104;-82
2021/06/15 13:12:24;;;;;;;3.87;2.33;;;;;;;34.52;19.00;100509.09;4484140;31;20130;-82
2021/06/15 13:15:07;;;;;;;4.85;2.85;;;;;;;35.16;17.02;100503.31;4482180;31;20167;-83
2021/06/15 13:17:35;;;;;;;4.60;3.10;;;;;;;34.94;18.48;100508.31;4482192;32;20587;-82
2021/06/15 13:20:22;;;;;;;7.12;2.78;;;;;;;35.60;16.90;100497.66;4495593;31;20107;-82
2021/06/15 13:22:50;;;;;;;3.47;2.50;;;;;;;35.23;16.48;100497.00;4492510;31;20108;-81
2021/06/15 13:25:28;;;;;;;5.80;3.17;;;;;;;35.34;15.92;100498.59;4481900;32;20100;-83
2021/06/15 13:28:04;;;;;;;5.47;2.77;;;;;;;35.52;15.88;100497.59;4483593;31;20102;-82
2021/06/15 13:30:37;;;;;;;5.45;3.28;;;;;;;33.36;18.22;100485.63;4492163;31;20108;-82
2021/06/15 13:33:10;;;;;;;4.85;2.50;;;;;;;33.42;17.67;100491.31;4488889;31;20124;-82
2021/06/15 13:35:41;;;;;;;4.32;3.10;;;;;;;33.79;17.97;100495.75;4492620;31;20153;-82
2021/06/15 13:38:30;;;;;;;4.70;2.80;;;;;;;34.19;19.37;100491.69;4483383;31;20123;-82
2021/06/15 13:41:02;;;;;;;4.15;2.47;;;;;;;34.67;18.23;100489.44;4487836;31;20100;-82
2021/06/15 13:43:35;;;;;;;28.15;5.15;;;;;;;34.71;17.74;100485.34;4481632;31;20100;-82
2021/06/15 13:46:14;;;;;;;7.03;2.90;;;;;;;34.81;18.67;100486.09;4487228;31;20632;-82
2021/06/15 13:49:01;;;;;;;;;;;;;;;35.00;18.10;100477.66;4484205;31;20120;-82
2021/06/15 13:51:28;;;;;;;5.03;2.83;;;;;;;35.09;16.94;100472.22;4488345;31;20034;-82
2021/06/15 13:53:55;;;;;;;4.85;2.85;;;;;;;33.45;18.06;100490.16;4492485;31;20155;-81
2021/06/15 13:56:23;;;;;;;5.37;2.67;;;;;;;32.11;19.56;100478.66;4488269;31;20115;-82
2021/06/15 13:58:50;;;;;;;6.22;2.97;;;;;;;33.34;20.18;100474.87;4485980;31;20096;-82
2021/06/15 14:01:18;;;;;;;4.30;2.92;;;;;;;32.33;18.62;100469.34;4496724;31;20159;-82
2021/06/15 14:03:45;;;;;;;10.80;3.62;;;;;;;33.16;20.49;100472.16;4487131;31;20136;-82
2021/06/15 14:06:12;;;;;;;5.78;3.10;;;;;;;32.93;18.58;100463.50;4497801;31;20107;-82
2021/06/15 14:08:41;;;;;;;17.87;3.65;;;;;;;33.09;20.08;100472.91;4491390;31;20084;-82
2021/06/15 14:11:08;;;;;;;5.10;2.67;;;;;;;33.10;19.19;100469.19;4482062;32;20104;-81
2021/06/15 14:13:37;;;;;;;7.05;2.87;;;;;;;32.47;19.27;100461.72;4486982;31;20095;-82
2021/06/15 14:16:04;;;;;;;5.93;3.10;;;;;;;32.92;20.75;100464.53;4492374;31;20096;-82
2021/06/15 14:18:32;;;;;;;4.43;2.75;;;;;;;33.44;21.91;100463.91;4488588;31;20532;-82
2021/06/15 14:20:59;;;;;;;5.57;2.95;;;;;;;33.97;20.62;100468.47;4481880;31;20124;-82
2021/06/15 14:23:26;;;;;;;17.35;3.62;;;;;;;34.55;19.25;100450.69;4493299;31;20108;-83
2021/06/15 14:25:53;;;;;;;6.82;3.10;;;;;;;35.09;18.37;100445.78;4496329;31;20096;-83
2021/06/15 14:28:20;;;;;;;5.57;3.10;;;;;;;34.97;18.20;100447.94;4498271;31;20108;-82
2021/06/15 14:30:47;;;;;;;5.47;3.55;;;;;;;33.23;18.14;100451.44;4497514;31;20112;-82
2021/06/15 14:33:15;;;;;;;4.78;2.65;;;;;;;32.96;17.67;100446.87;4498708;31;20696;-83
2021/06/15 14:35:43;;;;;;;7.03;3.22;;;;;;;32.22;19.49;100449.63;4497257;31;20096;-82
2021/06/15 14:38:11;;;;;;;6.60;3.12;;;;;;;32.65;19.24;100443.63;4497243;31;20088;-82
2021/06/15 14:40:39;;;;;;;6.97;3.85;;;;;;;32.17;20.32;100444.63;4495778;31;20198;-82
2021/06/15 14:43:06;;;;;;;6.28;3.30;;;;;;;31.92;19.92;100437.13;4495866;31;20448;-82
2021/06/15 14:45:34;;;;;;;6.70;3.92;;;;;;;32.64;20.99;100439.16;4498763;31;20146;-82
2021/06/15 14:48:01;;;;;;;7.15;3.28;;;;;;;32.04;20.02;100435.94;4498799;31;20442;-83